sensor_id;sensor_type;location;lat;lon;timestamp;temperature;humidity
7192;DHT22;3637;51.494;11.958;2022-10-03T00:05:06;11.40;99.90
7192;DHT22;3637;51.494;11.958;2022-10-03T00:08:17;11.40;99.90
7192;DHT22;3637;51.494;11.958;2022-10-03T00:11:27;11.40;99.90
7192;DHT22;3637;51.494;11.958;2022-10-03T00:14:40;11.30;99.90
7192;DHT22;3637;51.494;11.958;2022-10-03T00:17:51;11.30;99.90
7192;DHT22;3637;51.494;11.958;2022-10-03T00:21:06;11.20;99.90
7192;DHT22;3637;51.494;11.958;2022-10-03T00:24:19;11.20;99.90
7192;DHT22;3637;51.494;11.958;2022-10-03T00:27:32;11.30;99.90
7192;DHT22;3637;51.494;11.958;2022-10-03T00:30:56;11.30;99.90
7192;DHT22;3637;51.494;11.958;2022-10-03T00:34:10;11.30;99.90
7192;DHT22;3637;51.494;11.958;2022-10-03T00:37:25;11.30;99.90
7192;DHT22;3637;51.494;11.958;2022-10-03T00:40:49;11.20;99.90
7192;DHT22;3637;51.494;11.958;2022-10-03T00:44:25;11.10;99.90
7192;DHT22;3637;51.494;11.958;2022-10-03T00:47:49;11.10;99.90
7192;DHT22;3637;51.494;11.958;2022-10-03T00:51:06;11.10;99.90
7192;DHT22;3637;51.494;11.958;2022-10-03T00:57:59;11.00;99.90
7192;DHT22;3637;51.494;11.958;2022-10-03T01:01:20;11.00;99.90
7192;DHT22;3637;51.494;11.958;2022-10-03T01:04:33;11.10;99.90
7192;DHT22;3637;51.494;11.958;2022-10-03T01:07:58;11.10;99.90
7192;DHT22;3637;51.494;11.958;2022-10-03T01:11:14;11.10;99.90
7192;DHT22;3637;51.494;11.958;2022-10-03T01:14:32;11.10;99.90
7192;DHT22;3637;51.494;11.958;2022-10-03T01:17:47;11.10;99.90
7192;DHT22;3637;51.494;11.958;2022-10-03T01:21:01;11.20;99.90
7192;DHT22;3637;51.494;11.958;2022-10-03T01:24:36;11.30;99.90
7192;DHT22;3637;51.494;11.958;2022-10-03T01:27:52;11.30;99.90
7192;DHT22;3637;51.494;11.958;2022-10-03T01:31:22;11.40;99.90
7192;DHT22;3637;51.494;11.958;2022-10-03T01:34:32;11.40;99.90
7192;DHT22;3637;51.494;11.958;2022-10-03T01:37:42;11.50;99.90
7192;DHT22;3637;51.494;11.958;2022-10-03T01:40:50;11.50;99.90
7192;DHT22;3637;51.494;11.958;2022-10-03T01:43:58;11.50;99.90
7192;DHT22;3637;51.494;11.958;2022-10-03T01:47:13;11.50;99.90
7192;DHT22;3637;51.494;11.958;2022-10-03T01:50:22;11.60;99.90
7192;DHT22;3637;51.494;11.958;2022-10-03T01:53:34;11.60;99.90
7192;DHT22;3637;51.494;11.958;2022-10-03T01:56:41;11.60;99.90
7192;DHT22;3637;51.494;11.958;2022-10-03T01:59:51;11.60;99.90
7192;DHT22;3637;51.494;11.958;2022-10-03T02:03:05;11.60;99.90
7192;DHT22;3637;51.494;11.958;2022-10-03T02:06:26;11.60;99.90
7192;DHT22;3637;51.494;11.958;2022-10-03T02:09:35;11.60;99.90
7192;DHT22;3637;51.494;11.958;2022-10-03T02:12:47;11.60;99.90
7192;DHT22;3637;51.494;11.958;2022-10-03T02:15:56;11.60;99.90
7192;DHT22;3637;51.494;11.958;2022-10-03T02:19:09;11.70;99.90
7192;DHT22;3637;51.494;11.958;2022-10-03T02:22:15;11.70;99.90
7192;DHT22;3637;51.494;11.958;2022-10-03T02:25:48;11.70;99.90
7192;DHT22;3637;51.494;11.958;2022-10-03T02:29:16;11.70;99.90
7192;DHT22;3637;51.494;11.958;2022-10-03T02:32:44;11.70;99.90
7192;DHT22;3637;51.494;11.958;2022-10-03T02:36:01;11.70;99.90
7192;DHT22;3637;51.494;11.958;2022-10-03T02:39:38;11.90;99.90
7192;DHT22;3637;51.494;11.958;2022-10-03T02:47:07;11.70;99.90
7192;DHT22;3637;51.494;11.958;2022-10-03T02:50:33;11.70;99.90
7192;DHT22;3637;51.494;11.958;2022-10-03T02:54:14;11.70;99.90
7192;DHT22;3637;51.494;11.958;2022-10-03T02:57:50;11.70;99.90
7192;DHT22;3637;51.494;11.958;2022-10-03T03:01:30;11.70;99.90
7192;DHT22;3637;51.494;11.958;2022-10-03T03:08:31;11.60;99.90
7192;DHT22;3637;51.494;11.958;2022-10-03T03:11:59;11.40;99.90
7192;DHT22;3637;51.494;11.958;2022-10-03T03:18:50;11.60;99.90
7192;DHT22;3637;51.494;11.958;2022-10-03T03:22:00;11.60;99.90
7192;DHT22;3637;51.494;11.958;2022-10-03T03:25:31;11.70;99.90
7192;DHT22;3637;51.494;11.958;2022-10-03T03:28:43;11.70;99.90
7192;DHT22;3637;51.494;11.958;2022-10-03T03:31:53;11.70;99.90
7192;DHT22;3637;51.494;11.958;2022-10-03T03:35:08;11.70;99.90
7192;DHT22;3637;51.494;11.958;2022-10-03T03:38:24;11.70;99.90
7192;DHT22;3637;51.494;11.958;2022-10-03T03:41:47;11.70;99.90
7192;DHT22;3637;51.494;11.958;2022-10-03T03:45:07;11.70;99.90
7192;DHT22;3637;51.494;11.958;2022-10-03T03:52:16;11.80;99.90
7192;DHT22;3637;51.494;11.958;2022-10-03T03:55:35;11.90;99.90
7192;DHT22;3637;51.494;11.958;2022-10-03T03:58:48;11.80;99.90
7192;DHT22;3637;51.494;11.958;2022-10-03T04:02:04;11.80;99.90
7192;DHT22;3637;51.494;11.958;2022-10-03T04:05:17;11.80;99.90
7192;DHT22;3637;51.494;11.958;2022-10-03T04:08:39;11.80;99.90
7192;DHT22;3637;51.494;11.958;2022-10-03T04:11:53;11.70;99.90
7192;DHT22;3637;51.494;11.958;2022-10-03T04:15:08;11.70;99.90
7192;DHT22;3637;51.494;11.958;2022-10-03T04:18:31;11.60;99.90
7192;DHT22;3637;51.494;11.958;2022-10-03T04:22:17;11.60;99.90
7192;DHT22;3637;51.494;11.958;2022-10-03T04:29:18;11.60;99.90
7192;DHT22;3637;51.494;11.958;2022-10-03T04:32:45;11.70;99.90
7192;DHT22;3637;51.494;11.958;2022-10-03T04:39:36;11.60;99.90
7192;DHT22;3637;51.494;11.958;2022-10-03T04:42:51;11.70;99.90
7192;DHT22;3637;51.494;11.958;2022-10-03T04:46:08;11.60;99.90
7192;DHT22;3637;51.494;11.958;2022-10-03T04:49:17;11.60;99.90
7192;DHT22;3637;51.494;11.958;2022-10-03T04:52:27;11.60;99.90
7192;DHT22;3637;51.494;11.958;2022-10-03T04:55:39;11.60;99.90
7192;DHT22;3637;51.494;11.958;2022-10-03T04:58:49;11.70;99.90
7192;DHT22;3637;51.494;11.958;2022-10-03T05:01:57;11.60;99.90
7192;DHT22;3637;51.494;11.958;2022-10-03T05:05:20;11.60;99.90
7192;DHT22;3637;51.494;11.958;2022-10-03T05:08:34;11.50;99.90
7192;DHT22;3637;51.494;11.958;2022-10-03T05:11:52;11.70;99.90
7192;DHT22;3637;51.494;11.958;2022-10-03T05:15:06;11.50;99.90
7192;DHT22;3637;51.494;11.958;2022-10-03T05:18:18;11.50;99.90
7192;DHT22;3637;51.494;11.958;2022-10-03T05:21:30;11.50;99.90
7192;DHT22;3637;51.494;11.958;2022-10-03T05:24:42;11.50;99.90
7192;DHT22;3637;51.494;11.958;2022-10-03T05:27:50;11.60;99.90
7192;DHT22;3637;51.494;11.958;2022-10-03T05:31:01;11.60;99.90
7192;DHT22;3637;51.494;11.958;2022-10-03T05:34:27;11.60;99.90
7192;DHT22;3637;51.494;11.958;2022-10-03T05:37:54;11.60;99.90
7192;DHT22;3637;51.494;11.958;2022-10-03T05:41:02;11.60;99.90
7192;DHT22;3637;51.494;11.958;2022-10-03T05:44:12;11.60;99.90
7192;DHT22;3637;51.494;11.958;2022-10-03T05:47:22;11.60;99.90
7192;DHT22;3637;51.494;11.958;2022-10-03T05:51:15;11.60;99.90
7192;DHT22;3637;51.494;11.958;2022-10-03T05:58:16;11.60;99.90
7192;DHT22;3637;51.494;11.958;2022-10-03T06:01:41;11.70;99.90
7192;DHT22;3637;51.494;11.958;2022-10-03T06:05:15;11.70;99.90
7192;DHT22;3637;51.494;11.958;2022-10-03T06:08:53;11.70;99.90
7192;DHT22;3637;51.494;11.958;2022-10-03T06:12:05;11.70;99.90
7192;DHT22;3637;51.494;11.958;2022-10-03T06:15:25;11.80;99.90
7192;DHT22;3637;51.494;11.958;2022-10-03T06:18:53;11.80;99.90
7192;DHT22;3637;51.494;11.958;2022-10-03T06:22:45;11.80;99.90
7192;DHT22;3637;51.494;11.958;2022-10-03T06:26:07;11.80;99.90
7192;DHT22;3637;51.494;11.958;2022-10-03T06:33:34;11.80;99.90
7192;DHT22;3637;51.494;11.958;2022-10-03T06:36:50;11.90;99.90
7192;DHT22;3637;51.494;11.958;2022-10-03T06:40:31;12.00;99.90
7192;DHT22;3637;51.494;11.958;2022-10-03T06:47:27;12.00;99.90
7192;DHT22;3637;51.494;11.958;2022-10-03T06:51:02;12.20;99.90
7192;DHT22;3637;51.494;11.958;2022-10-03T06:58:11;12.20;99.90
7192;DHT22;3637;51.494;11.958;2022-10-03T07:01:46;12.20;99.90
7192;DHT22;3637;51.494;11.958;2022-10-03T07:05:14;12.30;99.90
7192;DHT22;3637;51.494;11.958;2022-10-03T07:16:15;12.40;99.90
7192;DHT22;3637;51.494;11.958;2022-10-03T07:19:39;12.40;99.90
7192;DHT22;3637;51.494;11.958;2022-10-03T07:23:09;12.40;99.90
7192;DHT22;3637;51.494;11.958;2022-10-03T07:26:41;12.40;99.90
7192;DHT22;3637;51.494;11.958;2022-10-03T07:30:07;12.40;99.90
7192;DHT22;3637;51.494;11.958;2022-10-03T07:33:32;12.40;99.90
7192;DHT22;3637;51.494;11.958;2022-10-03T07:36:56;12.50;99.90
7192;DHT22;3637;51.494;11.958;2022-10-03T07:40:52;12.60;99.90
7192;DHT22;3637;51.494;11.958;2022-10-03T07:44:21;12.70;99.90
7192;DHT22;3637;51.494;11.958;2022-10-03T07:47:57;12.80;99.90
7192;DHT22;3637;51.494;11.958;2022-10-03T07:51:11;12.80;99.90
7192;DHT22;3637;51.494;11.958;2022-10-03T07:54:38;12.90;99.90
7192;DHT22;3637;51.494;11.958;2022-10-03T07:58:10;12.90;99.90
7192;DHT22;3637;51.494;11.958;2022-10-03T08:01:42;12.90;99.90
7192;DHT22;3637;51.494;11.958;2022-10-03T08:05:05;13.00;99.90
7192;DHT22;3637;51.494;11.958;2022-10-03T08:08:35;13.10;99.90
7192;DHT22;3637;51.494;11.958;2022-10-03T08:11:55;13.10;99.90
7192;DHT22;3637;51.494;11.958;2022-10-03T08:15:08;13.20;99.90
7192;DHT22;3637;51.494;11.958;2022-10-03T08:18:35;13.20;99.90
7192;DHT22;3637;51.494;11.958;2022-10-03T08:22:02;13.50;99.90
7192;DHT22;3637;51.494;11.958;2022-10-03T08:25:16;13.30;99.90
7192;DHT22;3637;51.494;11.958;2022-10-03T08:28:57;13.40;99.90
7192;DHT22;3637;51.494;11.958;2022-10-03T08:32:45;13.50;99.90
7192;DHT22;3637;51.494;11.958;2022-10-03T08:36:23;13.50;99.90
7192;DHT22;3637;51.494;11.958;2022-10-03T08:39:55;13.60;99.90
7192;DHT22;3637;51.494;11.958;2022-10-03T08:47:05;13.70;99.90
7192;DHT22;3637;51.494;11.958;2022-10-03T08:50:34;13.70;99.90
7192;DHT22;3637;51.494;11.958;2022-10-03T08:53:58;13.80;99.90
7192;DHT22;3637;51.494;11.958;2022-10-03T08:57:17;13.80;99.90
7192;DHT22;3637;51.494;11.958;2022-10-03T09:00:23;13.90;99.90
7192;DHT22;3637;51.494;11.958;2022-10-03T09:04:11;14.00;99.90
7192;DHT22;3637;51.494;11.958;2022-10-03T09:07:47;14.10;99.90
7192;DHT22;3637;51.494;11.958;2022-10-03T09:14:48;14.00;99.90
7192;DHT22;3637;51.494;11.958;2022-10-03T09:18:19;14.10;99.90
7192;DHT22;3637;51.494;11.958;2022-10-03T09:22:02;14.10;99.90
7192;DHT22;3637;51.494;11.958;2022-10-03T09:25:22;14.20;99.90
7192;DHT22;3637;51.494;11.958;2022-10-03T09:28:39;14.30;99.90
7192;DHT22;3637;51.494;11.958;2022-10-03T09:43:22;14.40;99.90
7192;DHT22;3637;51.494;11.958;2022-10-03T09:47:00;14.50;99.10
7192;DHT22;3637;51.494;11.958;2022-10-03T09:50:47;14.30;99.00
7192;DHT22;3637;51.494;11.958;2022-10-03T09:57:55;14.20;99.90
7192;DHT22;3637;51.494;11.958;2022-10-03T10:01:13;14.20;99.50
7192;DHT22;3637;51.494;11.958;2022-10-03T10:04:45;14.20;99.70
7192;DHT22;3637;51.494;11.958;2022-10-03T10:11:57;14.50;99.40
7192;DHT22;3637;51.494;11.958;2022-10-03T10:15:19;14.60;97.60
7192;DHT22;3637;51.494;11.958;2022-10-03T10:22:45;14.90;97.00
7192;DHT22;3637;51.494;11.958;2022-10-03T10:26:16;15.00;97.30
7192;DHT22;3637;51.494;11.958;2022-10-03T10:33:23;15.10;96.20
7192;DHT22;3637;51.494;11.958;2022-10-03T10:40:37;15.20;95.70
7192;DHT22;3637;51.494;11.958;2022-10-03T10:51:39;15.60;94.70
7192;DHT22;3637;51.494;11.958;2022-10-03T10:55:13;15.40;94.30
7192;DHT22;3637;51.494;11.958;2022-10-03T11:10:07;15.40;94.00
7192;DHT22;3637;51.494;11.958;2022-10-03T11:17:15;15.70;94.20
7192;DHT22;3637;51.494;11.958;2022-10-03T11:32:11;16.00;92.60
7192;DHT22;3637;51.494;11.958;2022-10-03T11:35:35;16.00;91.70
7192;DHT22;3637;51.494;11.958;2022-10-03T11:38:51;16.10;91.80
7192;DHT22;3637;51.494;11.958;2022-10-03T11:41:59;16.10;92.10
7192;DHT22;3637;51.494;11.958;2022-10-03T11:45:05;15.90;91.90
7192;DHT22;3637;51.494;11.958;2022-10-03T11:48:24;15.90;92.00
7192;DHT22;3637;51.494;11.958;2022-10-03T11:51:36;15.70;92.60
7192;DHT22;3637;51.494;11.958;2022-10-03T11:54:44;15.70;93.10
7192;DHT22;3637;51.494;11.958;2022-10-03T11:57:58;15.60;93.00
7192;DHT22;3637;51.494;11.958;2022-10-03T12:01:17;15.60;93.10
7192;DHT22;3637;51.494;11.958;2022-10-03T12:04:27;15.60;92.50
7192;DHT22;3637;51.494;11.958;2022-10-03T12:07:51;15.60;92.80
7192;DHT22;3637;51.494;11.958;2022-10-03T12:11:17;15.50;93.20
7192;DHT22;3637;51.494;11.958;2022-10-03T12:14:27;15.60;93.70
7192;DHT22;3637;51.494;11.958;2022-10-03T12:17:32;15.60;93.80
7192;DHT22;3637;51.494;11.958;2022-10-03T12:21:04;15.70;93.50
7192;DHT22;3637;51.494;11.958;2022-10-03T12:24:28;15.80;92.50
7192;DHT22;3637;51.494;11.958;2022-10-03T12:27:37;15.80;92.90
7192;DHT22;3637;51.494;11.958;2022-10-03T12:30:46;15.90;93.10
7192;DHT22;3637;51.494;11.958;2022-10-03T12:33:53;16.00;93.40
7192;DHT22;3637;51.494;11.958;2022-10-03T12:37:16;15.80;93.00
7192;DHT22;3637;51.494;11.958;2022-10-03T12:40:25;16.00;92.80
7192;DHT22;3637;51.494;11.958;2022-10-03T12:43:43;16.00;92.80
7192;DHT22;3637;51.494;11.958;2022-10-03T12:46:56;16.10;92.60
7192;DHT22;3637;51.494;11.958;2022-10-03T12:50:10;16.10;92.50
7192;DHT22;3637;51.494;11.958;2022-10-03T12:53:29;16.20;92.70
7192;DHT22;3637;51.494;11.958;2022-10-03T12:56:39;16.30;92.50
7192;DHT22;3637;51.494;11.958;2022-10-03T12:59:44;16.30;92.20
7192;DHT22;3637;51.494;11.958;2022-10-03T13:03:05;16.30;91.40
7192;DHT22;3637;51.494;11.958;2022-10-03T13:06:25;16.30;91.50
7192;DHT22;3637;51.494;11.958;2022-10-03T13:13:17;16.30;91.60
7192;DHT22;3637;51.494;11.958;2022-10-03T13:16:26;16.30;91.40
7192;DHT22;3637;51.494;11.958;2022-10-03T13:19:35;16.30;91.00
7192;DHT22;3637;51.494;11.958;2022-10-03T13:22:44;16.30;91.00
7192;DHT22;3637;51.494;11.958;2022-10-03T13:25:53;16.10;91.30
7192;DHT22;3637;51.494;11.958;2022-10-03T13:29:14;16.00;91.70
7192;DHT22;3637;51.494;11.958;2022-10-03T13:32:29;15.90;92.40
7192;DHT22;3637;51.494;11.958;2022-10-03T13:35:37;15.70;93.10
7192;DHT22;3637;51.494;11.958;2022-10-03T13:39:05;15.60;93.50
7192;DHT22;3637;51.494;11.958;2022-10-03T13:42:15;15.60;93.40
7192;DHT22;3637;51.494;11.958;2022-10-03T13:45:20;15.90;93.50
7192;DHT22;3637;51.494;11.958;2022-10-03T13:48:26;15.60;93.20
7192;DHT22;3637;51.494;11.958;2022-10-03T13:51:39;15.70;93.40
7192;DHT22;3637;51.494;11.958;2022-10-03T13:55:15;15.90;93.50
7192;DHT22;3637;51.494;11.958;2022-10-03T13:58:36;15.90;93.20
7192;DHT22;3637;51.494;11.958;2022-10-03T14:01:49;16.00;93.00
7192;DHT22;3637;51.494;11.958;2022-10-03T14:08:40;16.00;93.50
7192;DHT22;3637;51.494;11.958;2022-10-03T14:11:48;16.00;93.80
7192;DHT22;3637;51.494;11.958;2022-10-03T14:15:06;16.00;93.50
7192;DHT22;3637;51.494;11.958;2022-10-03T14:18:21;16.00;93.60
7192;DHT22;3637;51.494;11.958;2022-10-03T14:21:48;16.10;92.80
7192;DHT22;3637;51.494;11.958;2022-10-03T14:25:16;16.00;92.70
7192;DHT22;3637;51.494;11.958;2022-10-03T14:28:24;15.90;92.20
7192;DHT22;3637;51.494;11.958;2022-10-03T14:31:34;15.90;92.10
7192;DHT22;3637;51.494;11.958;2022-10-03T14:34:44;15.90;92.20
7192;DHT22;3637;51.494;11.958;2022-10-03T14:37:53;16.00;92.50
7192;DHT22;3637;51.494;11.958;2022-10-03T14:41:02;15.80;92.80
7192;DHT22;3637;51.494;11.958;2022-10-03T14:44:08;15.90;93.10
7192;DHT22;3637;51.494;11.958;2022-10-03T14:47:14;15.90;93.20
7192;DHT22;3637;51.494;11.958;2022-10-03T14:50:20;15.80;93.30
7192;DHT22;3637;51.494;11.958;2022-10-03T14:53:25;16.00;93.40
7192;DHT22;3637;51.494;11.958;2022-10-03T14:56:33;16.00;93.00
7192;DHT22;3637;51.494;11.958;2022-10-03T14:59:40;15.90;93.20
7192;DHT22;3637;51.494;11.958;2022-10-03T15:02:45;16.10;93.60
7192;DHT22;3637;51.494;11.958;2022-10-03T15:06:00;15.90;93.90
7192;DHT22;3637;51.494;11.958;2022-10-03T15:09:07;15.80;94.30
7192;DHT22;3637;51.494;11.958;2022-10-03T15:12:15;15.80;94.40
7192;DHT22;3637;51.494;11.958;2022-10-03T15:15:24;15.90;94.90
7192;DHT22;3637;51.494;11.958;2022-10-03T15:18:28;15.70;95.30
7192;DHT22;3637;51.494;11.958;2022-10-03T15:21:31;15.60;95.40
7192;DHT22;3637;51.494;11.958;2022-10-03T15:24:34;15.60;95.70
7192;DHT22;3637;51.494;11.958;2022-10-03T15:27:39;15.50;96.00
7192;DHT22;3637;51.494;11.958;2022-10-03T15:30:42;15.50;95.90
7192;DHT22;3637;51.494;11.958;2022-10-03T15:33:50;15.50;96.20
7192;DHT22;3637;51.494;11.958;2022-10-03T15:36:54;15.40;96.40
7192;DHT22;3637;51.494;11.958;2022-10-03T15:40:04;15.50;96.70
7192;DHT22;3637;51.494;11.958;2022-10-03T15:43:27;15.40;96.80
7192;DHT22;3637;51.494;11.958;2022-10-03T15:46:34;15.40;96.80
7192;DHT22;3637;51.494;11.958;2022-10-03T15:49:38;15.40;97.00
7192;DHT22;3637;51.494;11.958;2022-10-03T15:52:48;15.40;97.20
7192;DHT22;3637;51.494;11.958;2022-10-03T15:55:56;15.30;97.30
7192;DHT22;3637;51.494;11.958;2022-10-03T15:59:05;15.40;97.30
7192;DHT22;3637;51.494;11.958;2022-10-03T16:02:15;15.40;97.40
7192;DHT22;3637;51.494;11.958;2022-10-03T16:05:20;15.30;97.30
7192;DHT22;3637;51.494;11.958;2022-10-03T16:08:26;15.40;97.40
7192;DHT22;3637;51.494;11.958;2022-10-03T16:11:35;15.40;97.50
7192;DHT22;3637;51.494;11.958;2022-10-03T16:14:43;15.40;97.50
7192;DHT22;3637;51.494;11.958;2022-10-03T16:17:50;15.30;97.70
7192;DHT22;3637;51.494;11.958;2022-10-03T16:20:56;15.40;97.80
7192;DHT22;3637;51.494;11.958;2022-10-03T16:24:01;15.30;97.80
7192;DHT22;3637;51.494;11.958;2022-10-03T16:27:12;15.30;97.90
7192;DHT22;3637;51.494;11.958;2022-10-03T16:30:20;15.20;97.90
7192;DHT22;3637;51.494;11.958;2022-10-03T16:33:25;15.10;98.00
7192;DHT22;3637;51.494;11.958;2022-10-03T16:36:30;15.10;98.10
7192;DHT22;3637;51.494;11.958;2022-10-03T16:39:34;15.20;98.20
7192;DHT22;3637;51.494;11.958;2022-10-03T16:42:40;15.10;98.30
7192;DHT22;3637;51.494;11.958;2022-10-03T16:45:46;15.10;98.40
7192;DHT22;3637;51.494;11.958;2022-10-03T16:48:48;15.10;98.40
7192;DHT22;3637;51.494;11.958;2022-10-03T16:52:12;15.10;98.50
7192;DHT22;3637;51.494;11.958;2022-10-03T16:55:17;15.10;98.50
7192;DHT22;3637;51.494;11.958;2022-10-03T16:58:25;15.00;98.50
7192;DHT22;3637;51.494;11.958;2022-10-03T17:01:32;15.00;98.50
7192;DHT22;3637;51.494;11.958;2022-10-03T17:04:38;15.10;98.60
7192;DHT22;3637;51.494;11.958;2022-10-03T17:07:43;14.90;98.60
7192;DHT22;3637;51.494;11.958;2022-10-03T17:10:51;15.00;99.70
7192;DHT22;3637;51.494;11.958;2022-10-03T17:13:56;14.80;99.90
7192;DHT22;3637;51.494;11.958;2022-10-03T17:17:05;14.70;99.90
7192;DHT22;3637;51.494;11.958;2022-10-03T17:20:12;14.60;99.90
7192;DHT22;3637;51.494;11.958;2022-10-03T17:23:23;14.50;99.90
7192;DHT22;3637;51.494;11.958;2022-10-03T17:26:31;14.50;99.90
7192;DHT22;3637;51.494;11.958;2022-10-03T17:29:39;14.50;99.90
7192;DHT22;3637;51.494;11.958;2022-10-03T17:32:45;14.50;99.90
7192;DHT22;3637;51.494;11.958;2022-10-03T17:36:05;14.40;99.90
7192;DHT22;3637;51.494;11.958;2022-10-03T17:39:20;14.40;99.90
7192;DHT22;3637;51.494;11.958;2022-10-03T17:42:35;14.40;99.90
7192;DHT22;3637;51.494;11.958;2022-10-03T17:45:43;14.40;99.90
7192;DHT22;3637;51.494;11.958;2022-10-03T17:48:52;14.30;99.90
7192;DHT22;3637;51.494;11.958;2022-10-03T17:51:56;14.40;99.90
7192;DHT22;3637;51.494;11.958;2022-10-03T17:55:00;14.30;99.90
7192;DHT22;3637;51.494;11.958;2022-10-03T17:58:04;14.30;99.90
7192;DHT22;3637;51.494;11.958;2022-10-03T18:01:09;14.30;99.90
7192;DHT22;3637;51.494;11.958;2022-10-03T18:04:17;14.30;99.90
7192;DHT22;3637;51.494;11.958;2022-10-03T18:07:20;14.30;99.90
7192;DHT22;3637;51.494;11.958;2022-10-03T18:10:25;14.30;99.90
7192;DHT22;3637;51.494;11.958;2022-10-03T18:13:35;14.30;99.90
7192;DHT22;3637;51.494;11.958;2022-10-03T18:16:44;14.30;99.90
7192;DHT22;3637;51.494;11.958;2022-10-03T18:19:57;14.30;99.90
7192;DHT22;3637;51.494;11.958;2022-10-03T18:23:05;14.30;99.90
7192;DHT22;3637;51.494;11.958;2022-10-03T18:26:16;14.20;99.90
7192;DHT22;3637;51.494;11.958;2022-10-03T18:29:28;14.20;99.90
7192;DHT22;3637;51.494;11.958;2022-10-03T18:32:32;14.20;99.90
7192;DHT22;3637;51.494;11.958;2022-10-03T18:35:38;14.20;99.90
7192;DHT22;3637;51.494;11.958;2022-10-03T18:38:43;14.20;99.90
7192;DHT22;3637;51.494;11.958;2022-10-03T18:41:48;14.20;99.90
7192;DHT22;3637;51.494;11.958;2022-10-03T18:44:51;14.30;99.90
7192;DHT22;3637;51.494;11.958;2022-10-03T18:47:57;14.20;99.90
7192;DHT22;3637;51.494;11.958;2022-10-03T18:51:08;14.40;99.90
7192;DHT22;3637;51.494;11.958;2022-10-03T18:54:33;14.30;99.90
7192;DHT22;3637;51.494;11.958;2022-10-03T18:57:37;14.30;99.90
7192;DHT22;3637;51.494;11.958;2022-10-03T19:00:49;14.20;99.90
7192;DHT22;3637;51.494;11.958;2022-10-03T19:03:56;14.30;99.90
7192;DHT22;3637;51.494;11.958;2022-10-03T19:07:01;14.30;99.90
7192;DHT22;3637;51.494;11.958;2022-10-03T19:10:27;14.30;99.90
7192;DHT22;3637;51.494;11.958;2022-10-03T19:13:37;14.20;99.90
7192;DHT22;3637;51.494;11.958;2022-10-03T19:17:08;14.30;99.90
7192;DHT22;3637;51.494;11.958;2022-10-03T19:20:19;14.30;99.90
7192;DHT22;3637;51.494;11.958;2022-10-03T19:23:25;14.30;99.90
7192;DHT22;3637;51.494;11.958;2022-10-03T19:26:31;14.20;99.90
7192;DHT22;3637;51.494;11.958;2022-10-03T19:29:38;14.30;99.90
7192;DHT22;3637;51.494;11.958;2022-10-03T19:32:48;14.20;99.90
7192;DHT22;3637;51.494;11.958;2022-10-03T19:35:57;14.30;99.90
7192;DHT22;3637;51.494;11.958;2022-10-03T19:39:03;14.30;99.90
7192;DHT22;3637;51.494;11.958;2022-10-03T19:42:21;14.30;99.90
7192;DHT22;3637;51.494;11.958;2022-10-03T19:45:25;14.30;99.90
7192;DHT22;3637;51.494;11.958;2022-10-03T19:48:28;14.20;99.90
7192;DHT22;3637;51.494;11.958;2022-10-03T19:51:30;14.30;99.90
7192;DHT22;3637;51.494;11.958;2022-10-03T19:54:43;14.20;99.90
7192;DHT22;3637;51.494;11.958;2022-10-03T19:57:48;14.20;99.90
7192;DHT22;3637;51.494;11.958;2022-10-03T20:00:52;14.10;99.90
7192;DHT22;3637;51.494;11.958;2022-10-03T20:03:55;14.20;99.90
7192;DHT22;3637;51.494;11.958;2022-10-03T20:06:58;14.20;99.90
7192;DHT22;3637;51.494;11.958;2022-10-03T20:10:21;14.20;99.90
7192;DHT22;3637;51.494;11.958;2022-10-03T20:13:25;14.20;99.90
7192;DHT22;3637;51.494;11.958;2022-10-03T20:16:30;14.20;99.90
7192;DHT22;3637;51.494;11.958;2022-10-03T20:19:46;14.20;99.90
7192;DHT22;3637;51.494;11.958;2022-10-03T20:22:55;14.20;99.90
7192;DHT22;3637;51.494;11.958;2022-10-03T20:26:06;14.20;99.90
7192;DHT22;3637;51.494;11.958;2022-10-03T20:29:22;14.20;99.90
7192;DHT22;3637;51.494;11.958;2022-10-03T20:32:25;14.20;99.90
7192;DHT22;3637;51.494;11.958;2022-10-03T20:35:31;14.20;99.90
7192;DHT22;3637;51.494;11.958;2022-10-03T20:39:03;14.10;99.90
7192;DHT22;3637;51.494;11.958;2022-10-03T20:42:12;14.10;99.90
7192;DHT22;3637;51.494;11.958;2022-10-03T20:45:18;14.10;99.90
7192;DHT22;3637;51.494;11.958;2022-10-03T20:48:24;14.10;99.90
7192;DHT22;3637;51.494;11.958;2022-10-03T20:51:38;14.10;99.90
7192;DHT22;3637;51.494;11.958;2022-10-03T20:54:46;14.10;99.90
7192;DHT22;3637;51.494;11.958;2022-10-03T20:57:57;14.10;99.90
7192;DHT22;3637;51.494;11.958;2022-10-03T21:01:05;14.10;99.90
7192;DHT22;3637;51.494;11.958;2022-10-03T21:04:13;14.10;99.90
7192;DHT22;3637;51.494;11.958;2022-10-03T21:07:23;14.10;99.90
7192;DHT22;3637;51.494;11.958;2022-10-03T21:10:28;14.10;99.90
7192;DHT22;3637;51.494;11.958;2022-10-03T21:13:35;14.10;99.90
7192;DHT22;3637;51.494;11.958;2022-10-03T21:16:44;14.10;99.90
7192;DHT22;3637;51.494;11.958;2022-10-03T21:19:51;14.10;99.90
7192;DHT22;3637;51.494;11.958;2022-10-03T21:22:59;14.10;99.90
7192;DHT22;3637;51.494;11.958;2022-10-03T21:26:05;14.00;99.90
7192;DHT22;3637;51.494;11.958;2022-10-03T21:29:19;14.00;99.90
7192;DHT22;3637;51.494;11.958;2022-10-03T21:32:57;14.10;99.90
7192;DHT22;3637;51.494;11.958;2022-10-03T21:36:06;14.00;99.90
7192;DHT22;3637;51.494;11.958;2022-10-03T21:39:15;14.00;99.90
7192;DHT22;3637;51.494;11.958;2022-10-03T21:42:22;14.00;99.90
7192;DHT22;3637;51.494;11.958;2022-10-03T21:45:34;14.00;99.90
7192;DHT22;3637;51.494;11.958;2022-10-03T21:48:48;14.00;99.90
7192;DHT22;3637;51.494;11.958;2022-10-03T21:52:14;13.90;99.90
7192;DHT22;3637;51.494;11.958;2022-10-03T21:55:32;14.00;99.90
7192;DHT22;3637;51.494;11.958;2022-10-03T21:59:10;13.90;99.90
7192;DHT22;3637;51.494;11.958;2022-10-03T22:02:22;13.90;99.90
7192;DHT22;3637;51.494;11.958;2022-10-03T22:05:36;13.90;99.90
7192;DHT22;3637;51.494;11.958;2022-10-03T22:08:42;13.90;99.90
7192;DHT22;3637;51.494;11.958;2022-10-03T22:11:48;14.00;99.90
7192;DHT22;3637;51.494;11.958;2022-10-03T22:14:57;13.90;99.90
7192;DHT22;3637;51.494;11.958;2022-10-03T22:18:04;13.90;99.90
7192;DHT22;3637;51.494;11.958;2022-10-03T22:21:12;13.90;99.90
7192;DHT22;3637;51.494;11.958;2022-10-03T22:24:24;13.90;99.90
7192;DHT22;3637;51.494;11.958;2022-10-03T22:27:35;13.90;99.90
7192;DHT22;3637;51.494;11.958;2022-10-03T22:30:45;13.90;99.90
7192;DHT22;3637;51.494;11.958;2022-10-03T22:34:02;14.00;99.90
7192;DHT22;3637;51.494;11.958;2022-10-03T22:37:08;13.90;99.90
7192;DHT22;3637;51.494;11.958;2022-10-03T22:40:10;13.90;99.90
7192;DHT22;3637;51.494;11.958;2022-10-03T22:43:13;13.90;99.90
7192;DHT22;3637;51.494;11.958;2022-10-03T22:46:20;13.90;99.90
7192;DHT22;3637;51.494;11.958;2022-10-03T22:49:31;13.80;99.90
7192;DHT22;3637;51.494;11.958;2022-10-03T22:52:37;13.70;99.90
7192;DHT22;3637;51.494;11.958;2022-10-03T22:55:42;13.80;99.90
7192;DHT22;3637;51.494;11.958;2022-10-03T22:58:45;13.80;99.90
7192;DHT22;3637;51.494;11.958;2022-10-03T23:01:50;13.80;99.90
7192;DHT22;3637;51.494;11.958;2022-10-03T23:04:56;13.80;99.90